Time,TemperatureF,DewpointF,PressureIn,WindDirection,WindDirectionDegrees,WindSpeedMPH,WindSpeedGustMPH,Humidity,HourlyPrecipIn,Conditions,Clouds,dailyrainin,SoftwareType,DateUTC
2013-06-12 00:00:00,79.9,72.4,29.97,North,-999,0.0,0.0,78,0.00,,,-99.99,WeatherLink 5.7,2013-06-12 04:00:00,
2013-06-12 00:15:00,79.6,72.1,29.97,North,-999,0.0,0.0,78,0.00,,,-99.99,WeatherLink 5.7,2013-06-12 04:15:00,
2013-06-12 00:30:00,79.3,71.5,29.97,North,-999,0.0,0.0,77,0.00,,,-99.99,WeatherLink 5.7,2013-06-12 04:30:00,
2013-06-12 00:45:00,78.9,71.8,29.97,North,-999,0.0,0.0,79,0.00,,,-99.99,WeatherLink 5.7,2013-06-12 04:45:00,
2013-06-12 01:00:00,78.8,71.7,29.97,North,0,0.0,2.0,79,0.00,,,-99.99,WeatherLink 5.7,2013-06-12 05:00:00,
2013-06-12 01:15:00,78.6,71.5,29.97,North,-999,0.0,0.0,79,0.00,,,-99.99,WeatherLink 5.7,2013-06-12 05:15:00,
2013-06-12 01:30:00,78.5,71.4,29.97,North,-999,0.0,0.0,79,0.00,,,-99.99,WeatherLink 5.7,2013-06-12 05:30:00,
2013-06-12 01:45:00,78.2,71.2,29.96,North,-999,0.0,0.0,79,0.00,,,-99.99,WeatherLink 5.7,2013-06-12 05:45:00,
2013-06-12 02:00:00,77.8,70.8,29.97,North,-999,0.0,0.0,79,0.00,,,-99.99,WeatherLink 5.7,2013-06-12 06:00:00,
2013-06-12 02:15:00,77.6,70.6,29.96,North,-999,0.0,0.0,79,0.00,,,-99.99,WeatherLink 5.7,2013-06-12 06:15:00,
2013-06-12 02:30:00,77.4,70.7,29.96,North,-999,0.0,0.0,80,0.00,,,-99.99,WeatherLink 5.7,2013-06-12 06:30:00,
2013-06-12 02:45:00,77.2,70.5,29.96,North,-999,0.0,0.0,80,0.00,,,-99.99,WeatherLink 5.7,2013-06-12 06:45:00,
2013-06-12 03:00:00,77.2,70.5,29.96,North,-999,0.0,0.0,80,0.00,,,-99.99,WeatherLink 5.7,2013-06-12 07:00:00,
2013-06-12 03:15:00,77.1,70.5,29.95,North,-999,0.0,0.0,80,0.00,,,-99.99,WeatherLink 5.7,2013-06-12 07:15:00,
2013-06-12 03:30:00,76.9,70.6,29.96,North,-999,0.0,0.0,81,0.00,,,-99.99,WeatherLink 5.7,2013-06-12 07:30:00,
2013-06-12 03:45:00,76.7,70.4,29.96,North,-999,0.0,0.0,81,0.00,,,-99.99,WeatherLink 5.7,2013-06-12 07:45:00,
2013-06-12 04:00:00,76.4,70.1,29.96,North,-999,0.0,0.0,81,0.00,,,-99.99,WeatherLink 5.7,2013-06-12 08:00:00,
2013-06-12 04:15:00,76.1,69.8,29.96,North,-999,0.0,0.0,81,0.00,,,-99.99,WeatherLink 5.7,2013-06-12 08:15:00,
2013-06-12 04:30:00,76.0,70.1,29.96,North,-999,0.0,0.0,82,0.00,,,-99.99,WeatherLink 5.7,2013-06-12 08:30:00,
2013-06-12 04:45:00,75.9,70.0,29.96,North,-999,0.0,0.0,82,0.00,,,-99.99,WeatherLink 5.7,2013-06-12 08:45:00,
2013-06-12 05:00:00,75.7,70.2,29.95,North,-999,0.0,0.0,83,0.00,,,-99.99,WeatherLink 5.7,2013-06-12 09:00:00,
2013-06-12 05:15:00,75.5,70.0,29.96,North,-999,0.0,0.0,83,0.00,,,-99.99,WeatherLink 5.7,2013-06-12 09:15:00,
2013-06-12 05:30:00,75.2,70.0,29.96,North,-999,0.0,0.0,84,0.00,,,-99.99,WeatherLink 5.7,2013-06-12 09:30:00,
2013-06-12 05:45:00,75.0,69.5,29.96,North,-999,0.0,0.0,83,0.00,,,-99.99,WeatherLink 5.7,2013-06-12 09:45:00,
2013-06-12 06:00:00,74.7,69.5,29.97,North,-999,0.0,0.0,84,0.00,,,-99.99,WeatherLink 5.7,2013-06-12 10:00:00,
2013-06-12 06:15:00,74.5,69.3,29.97,North,-999,0.0,0.0,84,0.00,,,-99.99,WeatherLink 5.7,2013-06-12 10:15:00,
2013-06-12 06:30:00,74.2,69.4,29.97,North,-999,0.0,0.0,85,0.00,,,-99.99,WeatherLink 5.7,2013-06-12 10:30:00,
2013-06-12 06:45:00,74.1,69.0,29.97,North,-999,0.0,0.0,84,0.00,,,-99.99,WeatherLink 5.7,2013-06-12 10:45:00,
2013-06-12 07:00:00,74.2,69.1,29.97,North,-999,0.0,0.0,84,0.00,,,-99.99,WeatherLink 5.7,2013-06-12 11:00:00,
2013-06-12 07:15:00,74.5,69.7,29.97,North,-999,0.0,0.0,85,0.00,,,-99.99,WeatherLink 5.7,2013-06-12 11:15:00,
2013-06-12 07:30:00,74.8,70.3,29.97,North,-999,0.0,0.0,86,0.00,,,-99.99,WeatherLink 5.7,2013-06-12 11:30:00,
2013-06-12 07:45:00,75.6,71.1,29.98,North,-999,0.0,0.0,86,0.00,,,-99.99,WeatherLink 5.7,2013-06-12 11:45:00,
2013-06-12 08:00:00,76.7,71.8,29.98,North,-999,0.0,0.0,85,0.00,,,-99.99,WeatherLink 5.7,2013-06-12 12:00:00,
2013-06-12 08:15:00,77.9,72.7,29.99,North,-999,0.0,0.0,84,0.00,,,-99.99,WeatherLink 5.7,2013-06-12 12:15:00,
2013-06-12 08:30:00,79.4,73.4,29.99,North,-999,0.0,0.0,82,0.00,,,-99.99,WeatherLink 5.7,2013-06-12 12:30:00,
2013-06-12 08:45:00,81.7,74.5,29.99,North,-999,0.0,0.0,79,0.00,,,-99.99,WeatherLink 5.7,2013-06-12 12:45:00,
2013-06-12 09:00:00,83.6,74.4,29.99,North,0,0.0,4.0,74,0.00,,,-99.99,WeatherLink 5.7,2013-06-12 13:00:00,
2013-06-12 09:15:00,84.9,75.3,29.99,North,-999,0.0,0.0,73,0.00,,,-99.99,WeatherLink 5.7,2013-06-12 13:15:00,
2013-06-12 09:30:00,86.1,74.7,29.99,North,0,1.0,5.0,69,0.00,,,-99.99,WeatherLink 5.7,2013-06-12 13:30:00,
2013-06-12 09:45:00,87.1,74.8,30.00,North,-999,0.0,0.0,67,0.00,,,-99.99,WeatherLink 5.7,2013-06-12 13:45:00,
2013-06-12 10:00:00,88.2,74.9,30.00,North,-999,0.0,0.0,65,0.00,,,-99.99,WeatherLink 5.7,2013-06-12 14:00:00,
2013-06-12 10:15:00,89.3,74.6,29.99,North,-999,0.0,0.0,62,0.00,,,-99.99,WeatherLink 5.7,2013-06-12 14:15:00,
2013-06-12 10:30:00,90.2,74.9,30.00,North,0,0.0,1.0,61,0.00,,,-99.99,WeatherLink 5.7,2013-06-12 14:30:00,
2013-06-12 10:45:00,90.5,75.7,30.00,North,0,0.0,6.0,62,0.00,,,-99.99,WeatherLink 5.7,2013-06-12 14:45:00,
2013-06-12 11:00:00,90.4,75.6,29.99,North,0,0.0,6.0,62,0.00,,,-99.99,WeatherLink 5.7,2013-06-12 15:00:00,
2013-06-12 11:15:00,90.9,75.1,30.00,North,0,1.0,9.0,60,0.00,,,-99.99,WeatherLink 5.7,2013-06-12 15:15:00,
2013-06-12 11:30:00,90.4,75.6,29.99,North,0,1.0,10.0,62,0.00,,,-99.99,WeatherLink 5.7,2013-06-12 15:30:00,
2013-06-12 11:45:00,91.3,75.5,29.99,North,0,2.0,10.0,60,0.00,,,-99.99,WeatherLink 5.7,2013-06-12 15:45:00,
2013-06-12 12:00:00,91.6,75.2,29.99,North,0,2.0,10.0,59,0.00,,,-99.99,WeatherLink 5.7,2013-06-12 16:00:00,
2013-06-12 12:15:00,92.0,75.1,29.99,North,0,3.0,11.0,58,0.00,,,-99.99,WeatherLink 5.7,2013-06-12 16:15:00,
2013-06-12 12:30:00,92.2,75.8,29.99,North,0,1.0,11.0,59,0.00,,,-99.99,WeatherLink 5.7,2013-06-12 16:30:00,
2013-06-12 12:45:00,92.1,75.2,29.99,North,0,2.0,10.0,58,0.00,,,-99.99,WeatherLink 5.7,2013-06-12 16:45:00,
2013-06-12 13:00:00,91.8,75.4,29.99,North,0,1.0,7.0,59,0.00,,,-99.99,WeatherLink 5.7,2013-06-12 17:00:00,
2013-06-12 13:15:00,91.7,75.3,29.98,North,0,3.0,11.0,59,0.00,,,-99.99,WeatherLink 5.7,2013-06-12 17:15:00,
2013-06-12 13:30:00,91.5,75.1,29.98,North,0,1.0,9.0,59,0.00,,,-99.99,WeatherLink 5.7,2013-06-12 17:30:00,
2013-06-12 13:45:00,91.6,74.7,29.98,North,0,1.0,9.0,58,0.00,,,-99.99,WeatherLink 5.7,2013-06-12 17:45:00,
2013-06-12 14:00:00,91.8,73.9,29.97,North,0,2.0,9.0,56,0.00,,,-99.99,WeatherLink 5.7,2013-06-12 18:00:00,
2013-06-12 14:15:00,91.7,74.3,29.97,North,0,1.0,9.0,57,0.00,,,-99.99,WeatherLink 5.7,2013-06-12 18:15:00,
2013-06-12 14:30:00,92.0,74.1,29.97,North,0,1.0,10.0,56,0.00,,,-99.99,WeatherLink 5.7,2013-06-12 18:30:00,
2013-06-12 14:45:00,92.6,73.5,29.96,North,0,1.0,10.0,54,0.00,,,-99.99,WeatherLink 5.7,2013-06-12 18:45:00,
2013-06-12 15:00:00,92.4,72.8,29.96,North,0,3.0,10.0,53,0.00,,,-99.99,WeatherLink 5.7,2013-06-12 19:00:00,
2013-06-12 15:15:00,91.9,72.9,29.95,North,0,2.0,11.0,54,0.00,,,-99.99,WeatherLink 5.7,2013-06-12 19:15:00,
2013-06-12 15:30:00,91.7,73.8,29.95,North,0,3.0,12.0,56,0.00,,,-99.99,WeatherLink 5.7,2013-06-12 19:30:00,
2013-06-12 15:45:00,91.1,73.7,29.95,North,0,3.0,14.0,57,0.00,,,-99.99,WeatherLink 5.7,2013-06-12 19:45:00,
2013-06-12 16:00:00,90.5,72.7,29.96,North,0,3.0,13.0,56,0.00,,,-99.99,WeatherLink 5.7,2013-06-12 20:00:00,
2013-06-12 16:15:00,90.4,72.6,29.95,North,0,3.0,11.0,56,0.00,,,-99.99,WeatherLink 5.7,2013-06-12 20:15:00,
2013-06-12 16:30:00,90.7,73.4,29.95,North,0,3.0,14.0,57,0.00,,,-99.99,WeatherLink 5.7,2013-06-12 20:30:00,
2013-06-12 16:45:00,90.7,73.4,29.95,North,0,2.0,12.0,57,0.00,,,-99.99,WeatherLink 5.7,2013-06-12 20:45:00,
2013-06-12 17:00:00,90.6,73.3,29.95,North,0,2.0,11.0,57,0.00,,,-99.99,WeatherLink 5.7,2013-06-12 21:00:00,
2013-06-12 17:15:00,90.2,73.4,29.94,North,0,2.0,13.0,58,0.00,,,-99.99,WeatherLink 5.7,2013-06-12 21:15:00,
2013-06-12 17:30:00,90.1,73.8,29.94,North,0,2.0,10.0,59,0.00,,,-99.99,WeatherLink 5.7,2013-06-12 21:30:00,
2013-06-12 17:45:00,90.2,72.9,29.94,North,0,1.0,12.0,57,0.00,,,-99.99,WeatherLink 5.7,2013-06-12 21:45:00,
2013-06-12 18:00:00,90.1,71.8,29.94,North,0,1.0,7.0,55,0.00,,,-99.99,WeatherLink 5.7,2013-06-12 22:00:00,
2013-06-12 18:15:00,88.8,71.6,29.94,North,0,0.0,7.0,57,0.00,,,-99.99,WeatherLink 5.7,2013-06-12 22:15:00,
2013-06-12 18:30:00,87.7,71.6,29.95,North,0,0.0,5.0,59,0.00,,,-99.99,WeatherLink 5.7,2013-06-12 22:30:00,
2013-06-12 18:45:00,86.9,71.3,29.95,North,0,0.0,7.0,60,0.00,,,-99.99,WeatherLink 5.7,2013-06-12 22:45:00,
2013-06-12 19:00:00,86.1,72.0,29.94,North,0,0.0,10.0,63,0.00,,,-99.99,WeatherLink 5.7,2013-06-12 23:00:00,
2013-06-12 19:15:00,85.7,72.6,29.94,North,0,0.0,6.0,65,0.00,,,-99.99,WeatherLink 5.7,2013-06-12 23:15:00,
2013-06-12 19:30:00,85.0,71.9,29.94,North,0,0.0,5.0,65,0.00,,,-99.99,WeatherLink 5.7,2013-06-12 23:30:00,
2013-06-12 19:45:00,84.3,71.7,29.95,North,0,0.0,1.0,66,0.00,,,-99.99,WeatherLink 5.7,2013-06-12 23:45:00,
2013-06-12 20:00:00,83.9,71.8,29.94,North,-999,0.0,0.0,67,0.00,,,-99.99,WeatherLink 5.7,2013-06-13 00:00:00,
2013-06-12 20:15:00,83.5,71.4,29.94,North,-999,0.0,0.0,67,0.00,,,-99.99,WeatherLink 5.7,2013-06-13 00:15:00,
2013-06-12 20:30:00,83.0,71.3,29.93,North,-999,0.0,0.0,68,0.00,,,-99.99,WeatherLink 5.7,2013-06-13 00:30:00,
2013-06-12 20:45:00,82.6,71.8,29.93,North,-999,0.0,0.0,70,0.00,,,-99.99,WeatherLink 5.7,2013-06-13 00:45:00,
2013-06-12 21:00:00,82.3,71.5,29.92,North,-999,0.0,0.0,70,0.00,,,-99.99,WeatherLink 5.7,2013-06-13 01:00:00,
2013-06-12 21:15:00,82.0,71.7,29.92,North,-999,0.0,0.0,71,0.00,,,-99.99,WeatherLink 5.7,2013-06-13 01:15:00,
2013-06-12 21:30:00,81.8,72.3,29.93,North,0,0.0,5.0,73,0.00,,,-99.99,WeatherLink 5.7,2013-06-13 01:30:00,
2013-06-12 21:45:00,81.8,72.3,29.93,North,0,0.0,3.0,73,0.00,,,-99.99,WeatherLink 5.7,2013-06-13 01:45:00,
2013-06-12 22:15:00,81.5,72.0,29.94,North,-999,0.0,0.0,73,0.00,,,-99.99,WeatherLink 5.7,2013-06-13 02:15:00,
2013-06-12 22:25:00,81.7,72.2,29.94,North,-999,0.0,0.0,73,0.00,,,-99.99,WeatherLink 5.7,2013-06-13 02:25:00,
2013-06-12 22:30:00,81.2,71.7,29.95,North,-999,0.0,0.0,73,0.00,,,-99.99,WeatherLink 5.7,2013-06-13 02:30:00,
2013-06-12 23:00:00,80.6,71.9,29.96,North,-999,0.0,0.0,75,0.00,,,-99.99,WeatherLink 5.7,2013-06-13 03:00:00,
2013-06-12 23:10:00,80.9,71.8,29.96,North,-999,0.0,0.0,74,0.00,,,-99.99,WeatherLink 5.7,2013-06-13 03:10:00,
2013-06-12 23:15:00,80.5,71.8,29.96,North,-999,0.0,0.0,75,0.00,,,-99.99,WeatherLink 5.7,2013-06-13 03:15:00,
2013-06-12 23:30:00,80.3,71.6,29.96,North,-999,0.0,0.0,75,0.00,,,-99.99,WeatherLink 5.7,2013-06-13 03:30:00,
2013-06-12 23:45:00,80.0,71.8,29.96,North,-999,0.0,0.0,76,0.00,,,-99.99,WeatherLink 5.7,2013-06-13 03:45:00,